Terminal Aerodrome Forecast
Issued by NWS Pittsburgh, PA

Current Version | Previous Version | Graphics & Text | Print | Product List | Glossary On
Versions: 1 2 3 4 5 6 7 8 9 10 11 12 13 14 15 16 17 18 19 20 21 22 23 24 25 26
000
FTUS41 KPBZ 251700
TAFPIT
TAF
KPIT 251733Z 2518/2624 26012G20KT P6SM BKN025 OVC035
     FM260000 24007KT P6SM BKN035
     FM260600 22003KT P6SM SCT015
     FM261200 21003KT P6SM FEW250=

USA.gov is the U.S. government's official web portal to all federal, state and local government web resources and services.